sensor_id;sensor_type;location;lat;lon;timestamp;P1;durP1;ratioP1;P2;durP2;ratioP2
14143;SDS011;7152;48.348;10.980;2023-02-18T00:00:51;2.53;;;1.93;;
14143;SDS011;7152;48.348;10.980;2023-02-18T00:03:17;1.97;;;1.80;;
14143;SDS011;7152;48.348;10.980;2023-02-18T00:05:43;2.77;;;1.80;;
14143;SDS011;7152;48.348;10.980;2023-02-18T00:08:08;3.47;;;2.10;;
14143;SDS011;7152;48.348;10.980;2023-02-18T00:10:34;2.13;;;1.90;;
14143;SDS011;7152;48.348;10.980;2023-02-18T00:12:59;2.27;;;1.80;;
14143;SDS011;7152;48.348;10.980;2023-02-18T00:15:25;2.03;;;1.73;;
14143;SDS011;7152;48.348;10.980;2023-02-18T00:17:51;1.73;;;1.63;;
14143;SDS011;7152;48.348;10.980;2023-02-18T00:20:17;1.97;;;1.60;;
14143;SDS011;7152;48.348;10.980;2023-02-18T00:22:42;1.83;;;1.60;;
14143;SDS011;7152;48.348;10.980;2023-02-18T00:25:08;2.83;;;1.70;;
14143;SDS011;7152;48.348;10.980;2023-02-18T00:27:33;1.70;;;1.60;;
14143;SDS011;7152;48.348;10.980;2023-02-18T00:29:59;2.77;;;1.83;;
14143;SDS011;7152;48.348;10.980;2023-02-18T00:32:25;2.00;;;1.50;;
14143;SDS011;7152;48.348;10.980;2023-02-18T00:34:50;1.90;;;1.80;;
14143;SDS011;7152;48.348;10.980;2023-02-18T00:37:16;2.23;;;1.70;;
14143;SDS011;7152;48.348;10.980;2023-02-18T00:39:41;2.27;;;1.87;;
14143;SDS011;7152;48.348;10.980;2023-02-18T00:42:08;2.07;;;1.53;;
14143;SDS011;7152;48.348;10.980;2023-02-18T00:44:34;2.20;;;1.43;;
14143;SDS011;7152;48.348;10.980;2023-02-18T00:46:59;1.87;;;1.77;;
14143;SDS011;7152;48.348;10.980;2023-02-18T00:49:25;3.20;;;1.70;;
14143;SDS011;7152;48.348;10.980;2023-02-18T00:51:51;2.30;;;1.80;;
14143;SDS011;7152;48.348;10.980;2023-02-18T00:54:16;2.00;;;1.90;;
14143;SDS011;7152;48.348;10.980;2023-02-18T00:56:42;3.10;;;1.90;;
14143;SDS011;7152;48.348;10.980;2023-02-18T00:59:07;2.40;;;2.20;;
14143;SDS011;7152;48.348;10.980;2023-02-18T01:01:33;3.50;;;1.93;;
14143;SDS011;7152;48.348;10.980;2023-02-18T01:03:59;3.80;;;2.23;;
14143;SDS011;7152;48.348;10.980;2023-02-18T01:06:24;3.07;;;1.87;;
14143;SDS011;7152;48.348;10.980;2023-02-18T01:08:50;2.17;;;1.87;;
14143;SDS011;7152;48.348;10.980;2023-02-18T01:11:16;2.63;;;1.90;;
14143;SDS011;7152;48.348;10.980;2023-02-18T01:13:41;2.30;;;1.97;;
14143;SDS011;7152;48.348;10.980;2023-02-18T01:16:07;2.43;;;1.83;;
14143;SDS011;7152;48.348;10.980;2023-02-18T01:18:33;2.57;;;1.90;;
14143;SDS011;7152;48.348;10.980;2023-02-18T01:20:59;1.90;;;1.80;;
14143;SDS011;7152;48.348;10.980;2023-02-18T01:23:25;3.53;;;2.30;;
14143;SDS011;7152;48.348;10.980;2023-02-18T01:25:51;2.93;;;1.90;;
14143;SDS011;7152;48.348;10.980;2023-02-18T01:28:17;2.87;;;2.57;;
14143;SDS011;7152;48.348;10.980;2023-02-18T01:30:45;2.17;;;1.83;;
14143;SDS011;7152;48.348;10.980;2023-02-18T01:33:10;2.57;;;2.07;;
14143;SDS011;7152;48.348;10.980;2023-02-18T01:35:37;2.00;;;1.73;;
14143;SDS011;7152;48.348;10.980;2023-02-18T01:38:04;2.53;;;2.00;;
14143;SDS011;7152;48.348;10.980;2023-02-18T01:40:29;2.13;;;1.93;;
14143;SDS011;7152;48.348;10.980;2023-02-18T01:42:55;1.87;;;1.70;;
14143;SDS011;7152;48.348;10.980;2023-02-18T01:48:20;4.13;;;1.70;;
14143;SDS011;7152;48.348;10.980;2023-02-18T01:50:57;2.10;;;1.90;;
14143;SDS011;7152;48.348;10.980;2023-02-18T01:53:29;1.77;;;1.60;;
14143;SDS011;7152;48.348;10.980;2023-02-18T01:55:59;2.10;;;1.87;;
14143;SDS011;7152;48.348;10.980;2023-02-18T01:58:29;2.33;;;2.13;;
14143;SDS011;7152;48.348;10.980;2023-02-18T02:00:55;3.63;;;2.13;;
14143;SDS011;7152;48.348;10.980;2023-02-18T02:03:21;2.40;;;1.73;;
14143;SDS011;7152;48.348;10.980;2023-02-18T02:05:46;3.07;;;1.80;;
14143;SDS011;7152;48.348;10.980;2023-02-18T02:08:12;3.03;;;1.80;;
14143;SDS011;7152;48.348;10.980;2023-02-18T02:13:40;2.70;;;1.70;;
14143;SDS011;7152;48.348;10.980;2023-02-18T02:16:34;2.13;;;1.87;;
14143;SDS011;7152;48.348;10.980;2023-02-18T02:19:21;2.67;;;1.90;;
14143;SDS011;7152;48.348;10.980;2023-02-18T02:22:24;2.43;;;2.23;;
14143;SDS011;7152;48.348;10.980;2023-02-18T02:28:09;2.00;;;1.80;;
14143;SDS011;7152;48.348;10.980;2023-02-18T02:36:39;2.63;;;1.70;;
14143;SDS011;7152;48.348;10.980;2023-02-18T02:39:42;2.10;;;1.90;;
14143;SDS011;7152;48.348;10.980;2023-02-18T02:45:23;3.13;;;2.07;;
14143;SDS011;7152;48.348;10.980;2023-02-18T02:48:12;2.83;;;2.10;;
14143;SDS011;7152;48.348;10.980;2023-02-18T02:51:06;3.07;;;2.30;;
14143;SDS011;7152;48.348;10.980;2023-02-18T02:53:48;3.13;;;2.07;;
14143;SDS011;7152;48.348;10.980;2023-02-18T02:56:14;3.33;;;2.50;;
14143;SDS011;7152;48.348;10.980;2023-02-18T02:58:42;2.47;;;2.27;;
14143;SDS011;7152;48.348;10.980;2023-02-18T03:12:18;2.17;;;2.00;;
14143;SDS011;7152;48.348;10.980;2023-02-18T03:17:30;2.17;;;1.97;;
14143;SDS011;7152;48.348;10.980;2023-02-18T03:20:12;2.20;;;2.00;;
14143;SDS011;7152;48.348;10.980;2023-02-18T03:22:46;2.40;;;2.20;;
14143;SDS011;7152;48.348;10.980;2023-02-18T03:25:14;2.13;;;1.93;;
14143;SDS011;7152;48.348;10.980;2023-02-18T03:30:26;2.33;;;1.93;;
14143;SDS011;7152;48.348;10.980;2023-02-18T03:32:57;2.17;;;1.97;;
14143;SDS011;7152;48.348;10.980;2023-02-18T03:35:26;2.23;;;2.03;;
14143;SDS011;7152;48.348;10.980;2023-02-18T03:38:00;2.27;;;1.97;;
14143;SDS011;7152;48.348;10.980;2023-02-18T03:40:30;1.80;;;1.70;;
14143;SDS011;7152;48.348;10.980;2023-02-18T03:42:57;2.07;;;1.90;;
14143;SDS011;7152;48.348;10.980;2023-02-18T03:45:23;1.83;;;1.73;;
14143;SDS011;7152;48.348;10.980;2023-02-18T03:47:50;1.70;;;1.60;;
14143;SDS011;7152;48.348;10.980;2023-02-18T03:50:16;2.57;;;1.60;;
14143;SDS011;7152;48.348;10.980;2023-02-18T03:52:42;1.80;;;1.70;;
14143;SDS011;7152;48.348;10.980;2023-02-18T03:55:08;2.10;;;1.60;;
14143;SDS011;7152;48.348;10.980;2023-02-18T03:57:34;1.80;;;1.70;;
14143;SDS011;7152;48.348;10.980;2023-02-18T04:00:00;1.87;;;1.70;;
14143;SDS011;7152;48.348;10.980;2023-02-18T04:02:26;2.47;;;1.83;;
14143;SDS011;7152;48.348;10.980;2023-02-18T04:04:51;2.00;;;1.83;;
14143;SDS011;7152;48.348;10.980;2023-02-18T04:07:17;1.93;;;1.83;;
14143;SDS011;7152;48.348;10.980;2023-02-18T04:09:43;2.07;;;1.87;;
14143;SDS011;7152;48.348;10.980;2023-02-18T04:12:09;1.70;;;1.60;;
14143;SDS011;7152;48.348;10.980;2023-02-18T04:14:34;1.50;;;1.40;;
14143;SDS011;7152;48.348;10.980;2023-02-18T04:17:00;2.20;;;2.10;;
14143;SDS011;7152;48.348;10.980;2023-02-18T04:19:26;1.60;;;1.50;;
14143;SDS011;7152;48.348;10.980;2023-02-18T04:21:51;1.80;;;1.57;;
14143;SDS011;7152;48.348;10.980;2023-02-18T04:24:17;1.77;;;1.67;;
14143;SDS011;7152;48.348;10.980;2023-02-18T04:26:43;1.70;;;1.60;;
14143;SDS011;7152;48.348;10.980;2023-02-18T04:29:08;1.60;;;1.50;;
14143;SDS011;7152;48.348;10.980;2023-02-18T04:31:34;2.17;;;1.97;;
14143;SDS011;7152;48.348;10.980;2023-02-18T04:33:59;2.10;;;1.93;;
14143;SDS011;7152;48.348;10.980;2023-02-18T04:36:25;1.67;;;1.57;;
14143;SDS011;7152;48.348;10.980;2023-02-18T04:38:51;1.90;;;1.77;;
14143;SDS011;7152;48.348;10.980;2023-02-18T04:41:16;1.80;;;1.70;;
14143;SDS011;7152;48.348;10.980;2023-02-18T04:43:42;1.97;;;1.77;;
14143;SDS011;7152;48.348;10.980;2023-02-18T04:46:08;1.43;;;1.33;;
14143;SDS011;7152;48.348;10.980;2023-02-18T04:48:33;2.30;;;1.60;;
14143;SDS011;7152;48.348;10.980;2023-02-18T04:50:59;1.60;;;1.50;;
14143;SDS011;7152;48.348;10.980;2023-02-18T04:53:25;1.93;;;1.70;;
14143;SDS011;7152;48.348;10.980;2023-02-18T04:55:51;1.93;;;1.80;;
14143;SDS011;7152;48.348;10.980;2023-02-18T04:58:18;1.60;;;1.50;;
14143;SDS011;7152;48.348;10.980;2023-02-18T05:00:44;1.70;;;1.60;;
14143;SDS011;7152;48.348;10.980;2023-02-18T05:03:10;2.77;;;1.53;;
14143;SDS011;7152;48.348;10.980;2023-02-18T05:05:36;1.47;;;1.37;;
14143;SDS011;7152;48.348;10.980;2023-02-18T05:08:02;1.60;;;1.50;;
14143;SDS011;7152;48.348;10.980;2023-02-18T05:10:28;1.63;;;1.53;;
14143;SDS011;7152;48.348;10.980;2023-02-18T05:12:54;1.47;;;1.30;;
14143;SDS011;7152;48.348;10.980;2023-02-18T05:15:20;1.90;;;1.37;;
14143;SDS011;7152;48.348;10.980;2023-02-18T05:17:45;1.23;;;1.23;;
14143;SDS011;7152;48.348;10.980;2023-02-18T05:20:11;1.47;;;1.23;;
14143;SDS011;7152;48.348;10.980;2023-02-18T05:22:37;1.60;;;1.50;;
14143;SDS011;7152;48.348;10.980;2023-02-18T05:25:03;1.57;;;1.47;;
14143;SDS011;7152;48.348;10.980;2023-02-18T05:27:29;1.30;;;1.20;;
14143;SDS011;7152;48.348;10.980;2023-02-18T05:29:55;1.50;;;1.40;;
14143;SDS011;7152;48.348;10.980;2023-02-18T05:32:21;1.17;;;1.10;;
14143;SDS011;7152;48.348;10.980;2023-02-18T05:34:47;1.33;;;1.23;;
14143;SDS011;7152;48.348;10.980;2023-02-18T05:37:13;1.30;;;1.20;;
14143;SDS011;7152;48.348;10.980;2023-02-18T05:39:39;1.30;;;1.20;;
14143;SDS011;7152;48.348;10.980;2023-02-18T05:42:06;1.50;;;1.40;;
14143;SDS011;7152;48.348;10.980;2023-02-18T05:44:31;1.43;;;1.20;;
14143;SDS011;7152;48.348;10.980;2023-02-18T05:46:58;1.30;;;1.20;;
14143;SDS011;7152;48.348;10.980;2023-02-18T05:49:26;1.30;;;1.20;;
14143;SDS011;7152;48.348;10.980;2023-02-18T05:51:52;1.43;;;1.33;;
14143;SDS011;7152;48.348;10.980;2023-02-18T05:54:18;1.27;;;1.17;;
14143;SDS011;7152;48.348;10.980;2023-02-18T05:56:44;1.07;;;1.00;;
14143;SDS011;7152;48.348;10.980;2023-02-18T05:59:10;1.53;;;1.30;;
14143;SDS011;7152;48.348;10.980;2023-02-18T06:01:36;1.70;;;1.30;;
14143;SDS011;7152;48.348;10.980;2023-02-18T06:04:02;1.87;;;1.40;;
14143;SDS011;7152;48.348;10.980;2023-02-18T06:06:27;1.33;;;1.10;;
14143;SDS011;7152;48.348;10.980;2023-02-18T06:08:53;1.20;;;1.10;;
14143;SDS011;7152;48.348;10.980;2023-02-18T06:11:19;1.10;;;1.10;;
14143;SDS011;7152;48.348;10.980;2023-02-18T06:13:44;1.23;;;1.13;;
14143;SDS011;7152;48.348;10.980;2023-02-18T06:16:10;1.10;;;1.00;;
14143;SDS011;7152;48.348;10.980;2023-02-18T06:18:36;1.03;;;1.03;;
14143;SDS011;7152;48.348;10.980;2023-02-18T06:21:01;1.30;;;1.20;;
14143;SDS011;7152;48.348;10.980;2023-02-18T06:23:27;1.47;;;1.37;;
14143;SDS011;7152;48.348;10.980;2023-02-18T06:25:53;1.43;;;1.33;;
14143;SDS011;7152;48.348;10.980;2023-02-18T06:28:18;1.10;;;1.00;;
14143;SDS011;7152;48.348;10.980;2023-02-18T06:30:44;1.30;;;1.20;;
14143;SDS011;7152;48.348;10.980;2023-02-18T06:33:10;1.40;;;1.30;;
14143;SDS011;7152;48.348;10.980;2023-02-18T06:35:36;1.40;;;1.20;;
14143;SDS011;7152;48.348;10.980;2023-02-18T06:38:02;1.47;;;1.37;;
14143;SDS011;7152;48.348;10.980;2023-02-18T06:40:27;1.53;;;1.43;;
14143;SDS011;7152;48.348;10.980;2023-02-18T06:42:53;1.67;;;1.57;;
14143;SDS011;7152;48.348;10.980;2023-02-18T06:45:19;1.27;;;1.17;;
14143;SDS011;7152;48.348;10.980;2023-02-18T06:47:45;1.43;;;1.30;;
14143;SDS011;7152;48.348;10.980;2023-02-18T06:50:11;1.30;;;1.20;;
14143;SDS011;7152;48.348;10.980;2023-02-18T06:52:37;1.60;;;1.50;;
14143;SDS011;7152;48.348;10.980;2023-02-18T06:55:06;1.70;;;1.60;;
14143;SDS011;7152;48.348;10.980;2023-02-18T06:57:33;1.60;;;1.40;;
14143;SDS011;7152;48.348;10.980;2023-02-18T06:59:59;2.10;;;1.40;;
14143;SDS011;7152;48.348;10.980;2023-02-18T07:02:25;1.50;;;1.40;;
14143;SDS011;7152;48.348;10.980;2023-02-18T07:04:51;1.43;;;1.33;;
14143;SDS011;7152;48.348;10.980;2023-02-18T07:07:17;1.57;;;1.47;;
14143;SDS011;7152;48.348;10.980;2023-02-18T07:09:42;1.50;;;1.40;;
14143;SDS011;7152;48.348;10.980;2023-02-18T07:12:08;1.10;;;1.10;;
14143;SDS011;7152;48.348;10.980;2023-02-18T07:14:34;1.70;;;1.60;;
14143;SDS011;7152;48.348;10.980;2023-02-18T07:16:59;1.50;;;1.40;;
14143;SDS011;7152;48.348;10.980;2023-02-18T07:19:25;1.40;;;1.30;;
14143;SDS011;7152;48.348;10.980;2023-02-18T07:21:50;1.23;;;1.13;;
14143;SDS011;7152;48.348;10.980;2023-02-18T07:24:18;1.20;;;1.10;;
14143;SDS011;7152;48.348;10.980;2023-02-18T07:26:43;1.20;;;1.10;;
14143;SDS011;7152;48.348;10.980;2023-02-18T07:29:09;1.13;;;1.13;;
14143;SDS011;7152;48.348;10.980;2023-02-18T07:31:35;1.40;;;1.20;;
14143;SDS011;7152;48.348;10.980;2023-02-18T07:34:02;1.63;;;1.37;;
14143;SDS011;7152;48.348;10.980;2023-02-18T07:36:28;1.73;;;0.97;;
14143;SDS011;7152;48.348;10.980;2023-02-18T07:38:53;0.93;;;0.93;;
14143;SDS011;7152;48.348;10.980;2023-02-18T07:41:20;1.20;;;1.17;;
14143;SDS011;7152;48.348;10.980;2023-02-18T07:43:46;1.80;;;1.03;;
14143;SDS011;7152;48.348;10.980;2023-02-18T07:46:13;1.10;;;0.90;;
14143;SDS011;7152;48.348;10.980;2023-02-18T07:48:39;1.20;;;1.10;;
14143;SDS011;7152;48.348;10.980;2023-02-18T07:51:08;1.47;;;1.10;;
14143;SDS011;7152;48.348;10.980;2023-02-18T07:53:35;1.43;;;0.90;;
14143;SDS011;7152;48.348;10.980;2023-02-18T07:56:01;2.40;;;1.07;;
14143;SDS011;7152;48.348;10.980;2023-02-18T07:58:28;1.63;;;1.00;;
14143;SDS011;7152;48.348;10.980;2023-02-18T08:00:55;1.13;;;1.13;;
14143;SDS011;7152;48.348;10.980;2023-02-18T08:03:23;0.73;;;0.70;;
14143;SDS011;7152;48.348;10.980;2023-02-18T08:05:50;1.57;;;0.97;;
14143;SDS011;7152;48.348;10.980;2023-02-18T08:08:18;0.80;;;0.80;;
14143;SDS011;7152;48.348;10.980;2023-02-18T08:10:46;0.87;;;0.87;;
14143;SDS011;7152;48.348;10.980;2023-02-18T08:13:12;1.03;;;0.93;;
14143;SDS011;7152;48.348;10.980;2023-02-18T08:15:38;1.23;;;0.90;;
14143;SDS011;7152;48.348;10.980;2023-02-18T08:18:04;2.10;;;1.17;;
14143;SDS011;7152;48.348;10.980;2023-02-18T08:20:35;1.10;;;1.00;;
14143;SDS011;7152;48.348;10.980;2023-02-18T08:23:02;1.50;;;0.90;;
14143;SDS011;7152;48.348;10.980;2023-02-18T08:25:28;0.90;;;0.90;;
14143;SDS011;7152;48.348;10.980;2023-02-18T08:27:54;1.20;;;1.00;;
14143;SDS011;7152;48.348;10.980;2023-02-18T08:30:20;0.80;;;0.80;;
14143;SDS011;7152;48.348;10.980;2023-02-18T08:32:45;0.70;;;0.70;;
14143;SDS011;7152;48.348;10.980;2023-02-18T08:35:11;1.23;;;0.80;;
14143;SDS011;7152;48.348;10.980;2023-02-18T08:37:37;0.90;;;0.90;;
14143;SDS011;7152;48.348;10.980;2023-02-18T08:40:02;0.80;;;0.80;;
14143;SDS011;7152;48.348;10.980;2023-02-18T08:42:29;1.00;;;1.00;;
14143;SDS011;7152;48.348;10.980;2023-02-18T08:44:54;0.80;;;0.80;;
14143;SDS011;7152;48.348;10.980;2023-02-18T08:47:20;1.03;;;1.00;;
14143;SDS011;7152;48.348;10.980;2023-02-18T08:49:46;1.60;;;1.00;;
14143;SDS011;7152;48.348;10.980;2023-02-18T08:52:11;1.10;;;1.00;;
14143;SDS011;7152;48.348;10.980;2023-02-18T08:54:37;0.90;;;0.90;;
14143;SDS011;7152;48.348;10.980;2023-02-18T08:57:03;0.80;;;0.80;;
14143;SDS011;7152;48.348;10.980;2023-02-18T08:59:28;0.80;;;0.80;;
14143;SDS011;7152;48.348;10.980;2023-02-18T09:01:54;1.63;;;0.60;;
14143;SDS011;7152;48.348;10.980;2023-02-18T09:04:20;0.77;;;0.77;;
14143;SDS011;7152;48.348;10.980;2023-02-18T09:06:47;0.60;;;0.60;;
14143;SDS011;7152;48.348;10.980;2023-02-18T09:09:14;0.70;;;0.50;;
14143;SDS011;7152;48.348;10.980;2023-02-18T09:11:41;0.73;;;0.73;;
14143;SDS011;7152;48.348;10.980;2023-02-18T09:14:07;1.33;;;0.93;;
14143;SDS011;7152;48.348;10.980;2023-02-18T09:16:32;0.60;;;0.60;;
14143;SDS011;7152;48.348;10.980;2023-02-18T09:18:58;0.70;;;0.70;;
14143;SDS011;7152;48.348;10.980;2023-02-18T09:21:24;0.70;;;0.70;;
14143;SDS011;7152;48.348;10.980;2023-02-18T09:23:51;1.23;;;0.70;;
14143;SDS011;7152;48.348;10.980;2023-02-18T09:26:18;0.67;;;0.67;;
14143;SDS011;7152;48.348;10.980;2023-02-18T09:28:49;0.60;;;0.60;;
14143;SDS011;7152;48.348;10.980;2023-02-18T09:31:19;1.00;;;0.70;;
14143;SDS011;7152;48.348;10.980;2023-02-18T09:33:48;0.80;;;0.77;;
14143;SDS011;7152;48.348;10.980;2023-02-18T09:36:16;1.73;;;0.70;;
14143;SDS011;7152;48.348;10.980;2023-02-18T09:38:42;0.70;;;0.70;;
14143;SDS011;7152;48.348;10.980;2023-02-18T09:41:13;0.50;;;0.50;;
14143;SDS011;7152;48.348;10.980;2023-02-18T09:43:56;0.70;;;0.70;;
14143;SDS011;7152;48.348;10.980;2023-02-18T09:49:27;1.43;;;0.60;;
14143;SDS011;7152;48.348;10.980;2023-02-18T09:51:59;0.60;;;0.60;;
14143;SDS011;7152;48.348;10.980;2023-02-18T09:54:34;0.50;;;0.50;;
14143;SDS011;7152;48.348;10.980;2023-02-18T09:57:00;1.53;;;0.60;;
14143;SDS011;7152;48.348;10.980;2023-02-18T09:59:27;0.70;;;0.70;;
14143;SDS011;7152;48.348;10.980;2023-02-18T10:01:54;0.60;;;0.50;;
14143;SDS011;7152;48.348;10.980;2023-02-18T10:04:22;0.60;;;0.60;;
14143;SDS011;7152;48.348;10.980;2023-02-18T10:06:54;0.77;;;0.67;;
14143;SDS011;7152;48.348;10.980;2023-02-18T10:09:24;0.73;;;0.50;;
14143;SDS011;7152;48.348;10.980;2023-02-18T10:12:01;1.03;;;0.73;;
14143;SDS011;7152;48.348;10.980;2023-02-18T10:14:37;0.53;;;0.47;;
14143;SDS011;7152;48.348;10.980;2023-02-18T10:17:02;0.50;;;0.50;;
14143;SDS011;7152;48.348;10.980;2023-02-18T10:22:00;1.10;;;0.70;;
14143;SDS011;7152;48.348;10.980;2023-02-18T10:24:32;0.70;;;0.70;;
14143;SDS011;7152;48.348;10.980;2023-02-18T10:27:02;1.03;;;0.70;;
14143;SDS011;7152;48.348;10.980;2023-02-18T10:29:30;1.47;;;0.80;;
14143;SDS011;7152;48.348;10.980;2023-02-18T10:45:47;1.13;;;0.80;;
14143;SDS011;7152;48.348;10.980;2023-02-18T10:51:29;0.80;;;0.70;;
14143;SDS011;7152;48.348;10.980;2023-02-18T10:53:58;1.23;;;0.70;;
14143;SDS011;7152;48.348;10.980;2023-02-18T10:59:17;1.03;;;0.60;;
14143;SDS011;7152;48.348;10.980;2023-02-18T11:01:46;0.70;;;0.70;;
14143;SDS011;7152;48.348;10.980;2023-02-18T11:04:22;0.77;;;0.63;;
14143;SDS011;7152;48.348;10.980;2023-02-18T11:06:52;0.70;;;0.70;;
14143;SDS011;7152;48.348;10.980;2023-02-18T11:09:31;0.50;;;0.50;;
14143;SDS011;7152;48.348;10.980;2023-02-18T11:15:35;0.73;;;0.73;;
14143;SDS011;7152;48.348;10.980;2023-02-18T11:17:38;1.20;;;0.70;;
14143;SDS011;7152;48.348;10.980;2023-02-18T11:20:20;1.20;;;0.80;;
14143;SDS011;7152;48.348;10.980;2023-02-18T11:22:46;0.70;;;0.70;;
14143;SDS011;7152;48.348;10.980;2023-02-18T11:25:22;0.80;;;0.80;;
14143;SDS011;7152;48.348;10.980;2023-02-18T11:27:57;0.67;;;0.67;;
14143;SDS011;7152;48.348;10.980;2023-02-18T11:30:39;1.13;;;0.80;;
14143;SDS011;7152;48.348;10.980;2023-02-18T11:35:52;0.83;;;0.80;;
14143;SDS011;7152;48.348;10.980;2023-02-18T11:38:36;0.57;;;0.57;;
14143;SDS011;7152;48.348;10.980;2023-02-18T11:41:15;1.93;;;0.60;;
14143;SDS011;7152;48.348;10.980;2023-02-18T11:43:52;0.80;;;0.70;;
14143;SDS011;7152;48.348;10.980;2023-02-18T11:46:23;0.80;;;0.80;;
14143;SDS011;7152;48.348;10.980;2023-02-18T11:48:50;1.27;;;0.70;;
14143;SDS011;7152;48.348;10.980;2023-02-18T11:51:17;1.13;;;0.70;;
14143;SDS011;7152;48.348;10.980;2023-02-18T11:54:01;0.70;;;0.70;;
14143;SDS011;7152;48.348;10.980;2023-02-18T11:56:53;1.00;;;0.90;;
14143;SDS011;7152;48.348;10.980;2023-02-18T11:59:21;0.60;;;0.60;;
14143;SDS011;7152;48.348;10.980;2023-02-18T12:01:50;1.40;;;0.70;;
14143;SDS011;7152;48.348;10.980;2023-02-18T12:04:26;1.10;;;0.63;;
14143;SDS011;7152;48.348;10.980;2023-02-18T12:07:16;0.90;;;0.80;;
14143;SDS011;7152;48.348;10.980;2023-02-18T12:09:47;1.93;;;0.90;;
14143;SDS011;7152;48.348;10.980;2023-02-18T12:12:23;1.00;;;0.90;;
14143;SDS011;7152;48.348;10.980;2023-02-18T12:14:54;1.07;;;0.60;;
14143;SDS011;7152;48.348;10.980;2023-02-18T12:31:37;0.63;;;0.60;;
14143;SDS011;7152;48.348;10.980;2023-02-18T12:34:21;1.20;;;0.70;;
14143;SDS011;7152;48.348;10.980;2023-02-18T12:45:17;0.70;;;0.70;;
14143;SDS011;7152;48.348;10.980;2023-02-18T12:50:38;1.13;;;0.60;;
14143;SDS011;7152;48.348;10.980;2023-02-18T12:53:41;0.63;;;0.63;;
14143;SDS011;7152;48.348;10.980;2023-02-18T13:01:47;1.17;;;0.70;;
14143;SDS011;7152;48.348;10.980;2023-02-18T13:04:31;0.60;;;0.60;;
14143;SDS011;7152;48.348;10.980;2023-02-18T13:07:15;0.40;;;0.40;;
14143;SDS011;7152;48.348;10.980;2023-02-18T13:15:02;1.33;;;0.67;;
14143;SDS011;7152;48.348;10.980;2023-02-18T13:17:37;0.60;;;0.60;;
14143;SDS011;7152;48.348;10.980;2023-02-18T13:20:05;1.03;;;0.50;;
14143;SDS011;7152;48.348;10.980;2023-02-18T13:22:57;0.67;;;0.60;;
14143;SDS011;7152;48.348;10.980;2023-02-18T13:25:23;1.37;;;0.70;;
14143;SDS011;7152;48.348;10.980;2023-02-18T13:28:25;0.63;;;0.63;;
14143;SDS011;7152;48.348;10.980;2023-02-18T13:30:42;0.87;;;0.80;;
14143;SDS011;7152;48.348;10.980;2023-02-18T13:39:08;1.03;;;0.50;;
14143;SDS011;7152;48.348;10.980;2023-02-18T13:41:38;0.67;;;0.63;;
14143;SDS011;7152;48.348;10.980;2023-02-18T13:44:06;0.70;;;0.70;;
14143;SDS011;7152;48.348;10.980;2023-02-18T13:49:19;1.00;;;0.70;;
14143;SDS011;7152;48.348;10.980;2023-02-18T13:51:50;1.77;;;0.60;;
14143;SDS011;7152;48.348;10.980;2023-02-18T13:54:23;0.70;;;0.70;;
14143;SDS011;7152;48.348;10.980;2023-02-18T14:01:55;0.77;;;0.50;;
14143;SDS011;7152;48.348;10.980;2023-02-18T14:04:55;2.93;;;0.60;;
14143;SDS011;7152;48.348;10.980;2023-02-18T14:17:42;0.50;;;0.50;;
14143;SDS011;7152;48.348;10.980;2023-02-18T14:20:48;0.87;;;0.80;;
14143;SDS011;7152;48.348;10.980;2023-02-18T14:33:29;0.90;;;0.80;;
14143;SDS011;7152;48.348;10.980;2023-02-18T14:38:49;1.37;;;0.93;;
14143;SDS011;7152;48.348;10.980;2023-02-18T14:47:41;1.10;;;0.80;;
14143;SDS011;7152;48.348;10.980;2023-02-18T14:50:16;0.80;;;0.73;;
14143;SDS011;7152;48.348;10.980;2023-02-18T14:55:17;1.33;;;0.80;;
14143;SDS011;7152;48.348;10.980;2023-02-18T14:57:49;1.40;;;0.87;;
14143;SDS011;7152;48.348;10.980;2023-02-18T15:00:21;1.10;;;0.90;;
14143;SDS011;7152;48.348;10.980;2023-02-18T15:02:50;2.73;;;1.23;;
14143;SDS011;7152;48.348;10.980;2023-02-18T15:05:19;0.80;;;0.80;;
14143;SDS011;7152;48.348;10.980;2023-02-18T15:08:13;2.93;;;1.00;;
14143;SDS011;7152;48.348;10.980;2023-02-18T15:10:58;1.60;;;1.33;;
14143;SDS011;7152;48.348;10.980;2023-02-18T15:13:30;2.00;;;1.17;;
14143;SDS011;7152;48.348;10.980;2023-02-18T15:16:01;3.13;;;1.60;;
14143;SDS011;7152;48.348;10.980;2023-02-18T15:18:57;6.10;;;1.00;;
14143;SDS011;7152;48.348;10.980;2023-02-18T15:24:10;2.10;;;1.37;;
14143;SDS011;7152;48.348;10.980;2023-02-18T15:26:44;1.03;;;0.93;;
14143;SDS011;7152;48.348;10.980;2023-02-18T15:29:18;1.00;;;1.00;;
14143;SDS011;7152;48.348;10.980;2023-02-18T15:31:46;1.27;;;1.10;;
14143;SDS011;7152;48.348;10.980;2023-02-18T15:34:17;1.07;;;0.90;;
14143;SDS011;7152;48.348;10.980;2023-02-18T15:36:53;0.90;;;0.90;;
14143;SDS011;7152;48.348;10.980;2023-02-18T15:39:26;0.83;;;0.83;;
14143;SDS011;7152;48.348;10.980;2023-02-18T15:41:53;0.70;;;0.70;;
14143;SDS011;7152;48.348;10.980;2023-02-18T15:44:43;0.80;;;0.80;;
14143;SDS011;7152;48.348;10.980;2023-02-18T15:47:14;1.60;;;0.80;;
14143;SDS011;7152;48.348;10.980;2023-02-18T15:49:43;1.63;;;0.90;;
14143;SDS011;7152;48.348;10.980;2023-02-18T15:52:11;1.10;;;0.90;;
14143;SDS011;7152;48.348;10.980;2023-02-18T15:54:38;1.00;;;0.80;;
14143;SDS011;7152;48.348;10.980;2023-02-18T15:57:05;1.10;;;1.00;;
14143;SDS011;7152;48.348;10.980;2023-02-18T15:59:42;1.67;;;0.97;;
14143;SDS011;7152;48.348;10.980;2023-02-18T16:02:13;1.00;;;0.90;;
14143;SDS011;7152;48.348;10.980;2023-02-18T16:04:47;0.83;;;0.80;;
14143;SDS011;7152;48.348;10.980;2023-02-18T16:07:30;1.00;;;0.77;;
14143;SDS011;7152;48.348;10.980;2023-02-18T16:12:38;0.70;;;0.70;;
14143;SDS011;7152;48.348;10.980;2023-02-18T16:15:04;1.90;;;1.07;;
14143;SDS011;7152;48.348;10.980;2023-02-18T16:17:30;1.20;;;0.90;;
14143;SDS011;7152;48.348;10.980;2023-02-18T16:19:58;1.47;;;0.50;;
14143;SDS011;7152;48.348;10.980;2023-02-18T16:24:55;1.27;;;1.17;;
14143;SDS011;7152;48.348;10.980;2023-02-18T16:27:26;0.90;;;0.80;;
14143;SDS011;7152;48.348;10.980;2023-02-18T16:29:56;1.20;;;1.10;;
14143;SDS011;7152;48.348;10.980;2023-02-18T16:32:25;1.30;;;1.13;;
14143;SDS011;7152;48.348;10.980;2023-02-18T16:34:51;1.70;;;1.60;;
14143;SDS011;7152;48.348;10.980;2023-02-18T16:37:16;0.93;;;0.90;;
14143;SDS011;7152;48.348;10.980;2023-02-18T16:40:01;1.30;;;1.20;;
14143;SDS011;7152;48.348;10.980;2023-02-18T16:42:26;1.83;;;1.10;;
14143;SDS011;7152;48.348;10.980;2023-02-18T16:44:52;2.83;;;1.30;;
14143;SDS011;7152;48.348;10.980;2023-02-18T16:47:18;1.33;;;1.23;;
14143;SDS011;7152;48.348;10.980;2023-02-18T16:49:45;0.90;;;0.90;;
14143;SDS011;7152;48.348;10.980;2023-02-18T16:52:14;1.17;;;1.07;;
14143;SDS011;7152;48.348;10.980;2023-02-18T16:54:41;1.00;;;1.00;;
14143;SDS011;7152;48.348;10.980;2023-02-18T16:57:08;1.30;;;1.20;;
14143;SDS011;7152;48.348;10.980;2023-02-18T16:59:34;0.97;;;0.97;;
14143;SDS011;7152;48.348;10.980;2023-02-18T17:02:00;0.90;;;0.90;;
14143;SDS011;7152;48.348;10.980;2023-02-18T17:04:26;1.07;;;0.77;;
14143;SDS011;7152;48.348;10.980;2023-02-18T17:06:51;2.53;;;1.37;;
14143;SDS011;7152;48.348;10.980;2023-02-18T17:09:19;1.53;;;1.13;;
14143;SDS011;7152;48.348;10.980;2023-02-18T17:11:49;1.20;;;1.07;;
14143;SDS011;7152;48.348;10.980;2023-02-18T17:14:18;1.00;;;0.90;;
14143;SDS011;7152;48.348;10.980;2023-02-18T17:16:45;0.70;;;0.70;;
14143;SDS011;7152;48.348;10.980;2023-02-18T17:19:12;1.30;;;0.97;;
14143;SDS011;7152;48.348;10.980;2023-02-18T17:21:38;2.10;;;1.33;;
14143;SDS011;7152;48.348;10.980;2023-02-18T17:24:04;1.63;;;1.40;;
14143;SDS011;7152;48.348;10.980;2023-02-18T17:26:30;1.50;;;1.20;;
14143;SDS011;7152;48.348;10.980;2023-02-18T17:28:56;1.27;;;1.07;;
14143;SDS011;7152;48.348;10.980;2023-02-18T17:31:26;2.10;;;0.90;;
14143;SDS011;7152;48.348;10.980;2023-02-18T17:33:58;1.07;;;0.97;;
14143;SDS011;7152;48.348;10.980;2023-02-18T17:36:26;1.10;;;0.90;;